sensor_id;sensor_type;location;lat;lon;timestamp;P1;durP1;ratioP1;P2;durP2;ratioP2
84774;SDS011;75005;50.966;11.344;2024-01-10T00:01:23;45.40;;;18.23;;
84774;SDS011;75005;50.966;11.344;2024-01-10T00:03:52;29.52;;;15.30;;
84774;SDS011;75005;50.966;11.344;2024-01-10T00:06:18;35.17;;;15.73;;
84774;SDS011;75005;50.966;11.344;2024-01-10T00:08:43;29.50;;;11.63;;
84774;SDS011;75005;50.966;11.344;2024-01-10T00:11:09;32.10;;;15.43;;
84774;SDS011;75005;50.966;11.344;2024-01-10T00:13:37;30.75;;;14.38;;
84774;SDS011;75005;50.966;11.344;2024-01-10T00:16:03;24.27;;;13.48;;
84774;SDS011;75005;50.966;11.344;2024-01-10T00:18:28;30.23;;;15.73;;
84774;SDS011;75005;50.966;11.344;2024-01-10T00:20:54;31.85;;;12.95;;
84774;SDS011;75005;50.966;11.344;2024-01-10T00:23:20;26.33;;;14.38;;
84774;SDS011;75005;50.966;11.344;2024-01-10T00:25:46;32.22;;;15.23;;
84774;SDS011;75005;50.966;11.344;2024-01-10T00:28:12;32.13;;;14.68;;
84774;SDS011;75005;50.966;11.344;2024-01-10T00:30:38;33.20;;;14.82;;
84774;SDS011;75005;50.966;11.344;2024-01-10T00:33:03;25.98;;;14.30;;
84774;SDS011;75005;50.966;11.344;2024-01-10T00:35:30;27.85;;;14.10;;
84774;SDS011;75005;50.966;11.344;2024-01-10T00:37:55;21.17;;;11.55;;
84774;SDS011;75005;50.966;11.344;2024-01-10T00:40:21;37.03;;;15.13;;
84774;SDS011;75005;50.966;11.344;2024-01-10T00:42:47;36.70;;;17.80;;
84774;SDS011;75005;50.966;11.344;2024-01-10T00:45:12;28.35;;;15.00;;
84774;SDS011;75005;50.966;11.344;2024-01-10T00:47:38;29.35;;;16.08;;
84774;SDS011;75005;50.966;11.344;2024-01-10T00:50:03;32.10;;;14.45;;
84774;SDS011;75005;50.966;11.344;2024-01-10T00:52:29;34.85;;;15.18;;
84774;SDS011;75005;50.966;11.344;2024-01-10T00:54:55;25.90;;;13.13;;
84774;SDS011;75005;50.966;11.344;2024-01-10T00:57:20;31.23;;;13.73;;
84774;SDS011;75005;50.966;11.344;2024-01-10T00:59:45;24.20;;;10.88;;
84774;SDS011;75005;50.966;11.344;2024-01-10T01:02:11;26.77;;;13.48;;
84774;SDS011;75005;50.966;11.344;2024-01-10T01:04:37;23.25;;;11.85;;
84774;SDS011;75005;50.966;11.344;2024-01-10T01:07:02;26.48;;;13.55;;
84774;SDS011;75005;50.966;11.344;2024-01-10T01:09:28;22.77;;;12.32;;
84774;SDS011;75005;50.966;11.344;2024-01-10T01:11:53;26.92;;;12.40;;
84774;SDS011;75005;50.966;11.344;2024-01-10T01:14:18;21.13;;;11.10;;
84774;SDS011;75005;50.966;11.344;2024-01-10T01:16:44;31.40;;;13.40;;
84774;SDS011;75005;50.966;11.344;2024-01-10T01:19:09;34.55;;;14.57;;
84774;SDS011;75005;50.966;11.344;2024-01-10T01:21:34;13.75;;;8.85;;
84774;SDS011;75005;50.966;11.344;2024-01-10T01:24:00;21.65;;;9.82;;
84774;SDS011;75005;50.966;11.344;2024-01-10T01:26:25;47.53;;;17.23;;
84774;SDS011;75005;50.966;11.344;2024-01-10T01:28:51;31.42;;;13.15;;
84774;SDS011;75005;50.966;11.344;2024-01-10T01:31:16;28.77;;;13.13;;
84774;SDS011;75005;50.966;11.344;2024-01-10T01:33:42;24.90;;;13.82;;
84774;SDS011;75005;50.966;11.344;2024-01-10T01:36:08;28.70;;;14.98;;
84774;SDS011;75005;50.966;11.344;2024-01-10T01:38:33;28.98;;;12.38;;
84774;SDS011;75005;50.966;11.344;2024-01-10T01:41:00;15.48;;;8.70;;
84774;SDS011;75005;50.966;11.344;2024-01-10T01:43:26;28.98;;;14.18;;
84774;SDS011;75005;50.966;11.344;2024-01-10T01:45:52;30.60;;;12.85;;
84774;SDS011;75005;50.966;11.344;2024-01-10T01:48:19;26.50;;;13.15;;
84774;SDS011;75005;50.966;11.344;2024-01-10T01:50:49;19.77;;;12.05;;
84774;SDS011;75005;50.966;11.344;2024-01-10T01:53:17;26.40;;;12.80;;
84774;SDS011;75005;50.966;11.344;2024-01-10T01:55:46;29.70;;;13.50;;
84774;SDS011;75005;50.966;11.344;2024-01-10T01:58:12;19.27;;;11.07;;
84774;SDS011;75005;50.966;11.344;2024-01-10T02:00:37;32.72;;;14.15;;
84774;SDS011;75005;50.966;11.344;2024-01-10T02:03:08;28.80;;;13.15;;
84774;SDS011;75005;50.966;11.344;2024-01-10T02:05:35;28.38;;;13.77;;
84774;SDS011;75005;50.966;11.344;2024-01-10T02:08:03;31.40;;;16.25;;
84774;SDS011;75005;50.966;11.344;2024-01-10T02:10:29;30.63;;;14.55;;
84774;SDS011;75005;50.966;11.344;2024-01-10T02:12:55;29.25;;;13.38;;
84774;SDS011;75005;50.966;11.344;2024-01-10T02:15:20;28.73;;;15.13;;
84774;SDS011;75005;50.966;11.344;2024-01-10T02:17:49;31.92;;;13.27;;
84774;SDS011;75005;50.966;11.344;2024-01-10T02:20:15;28.23;;;14.20;;
84774;SDS011;75005;50.966;11.344;2024-01-10T02:22:45;28.15;;;12.90;;
84774;SDS011;75005;50.966;11.344;2024-01-10T02:25:11;29.90;;;13.70;;
84774;SDS011;75005;50.966;11.344;2024-01-10T02:27:38;34.97;;;14.32;;
84774;SDS011;75005;50.966;11.344;2024-01-10T02:30:04;28.33;;;15.57;;
84774;SDS011;75005;50.966;11.344;2024-01-10T02:32:32;33.95;;;13.73;;
84774;SDS011;75005;50.966;11.344;2024-01-10T02:34:57;33.58;;;12.70;;
84774;SDS011;75005;50.966;11.344;2024-01-10T02:37:26;24.30;;;14.60;;
84774;SDS011;75005;50.966;11.344;2024-01-10T02:39:52;41.92;;;14.18;;
84774;SDS011;75005;50.966;11.344;2024-01-10T02:42:17;24.45;;;12.40;;
84774;SDS011;75005;50.966;11.344;2024-01-10T02:44:43;22.77;;;11.32;;
84774;SDS011;75005;50.966;11.344;2024-01-10T02:47:09;21.73;;;11.52;;
84774;SDS011;75005;50.966;11.344;2024-01-10T02:49:35;26.95;;;13.70;;
84774;SDS011;75005;50.966;11.344;2024-01-10T02:52:00;22.80;;;11.80;;
84774;SDS011;75005;50.966;11.344;2024-01-10T02:54:26;21.25;;;9.10;;
84774;SDS011;75005;50.966;11.344;2024-01-10T02:56:51;31.00;;;15.50;;
84774;SDS011;75005;50.966;11.344;2024-01-10T02:59:17;21.87;;;12.13;;
84774;SDS011;75005;50.966;11.344;2024-01-10T03:01:42;30.13;;;13.55;;
84774;SDS011;75005;50.966;11.344;2024-01-10T03:04:08;22.63;;;10.60;;
84774;SDS011;75005;50.966;11.344;2024-01-10T03:06:33;29.40;;;13.73;;
84774;SDS011;75005;50.966;11.344;2024-01-10T03:08:59;31.13;;;14.18;;
84774;SDS011;75005;50.966;11.344;2024-01-10T03:11:24;32.60;;;15.95;;
84774;SDS011;75005;50.966;11.344;2024-01-10T03:13:51;29.75;;;14.63;;
84774;SDS011;75005;50.966;11.344;2024-01-10T03:16:25;24.75;;;10.70;;
84774;SDS011;75005;50.966;11.344;2024-01-10T03:18:50;33.45;;;13.82;;
84774;SDS011;75005;50.966;11.344;2024-01-10T03:21:16;47.65;;;17.25;;
84774;SDS011;75005;50.966;11.344;2024-01-10T03:23:47;28.55;;;11.98;;
84774;SDS011;75005;50.966;11.344;2024-01-10T03:26:13;24.92;;;12.52;;
84774;SDS011;75005;50.966;11.344;2024-01-10T03:28:39;27.92;;;13.73;;
84774;SDS011;75005;50.966;11.344;2024-01-10T03:31:04;40.70;;;13.53;;
84774;SDS011;75005;50.966;11.344;2024-01-10T03:33:29;25.13;;;11.88;;
84774;SDS011;75005;50.966;11.344;2024-01-10T03:35:55;23.70;;;12.48;;
84774;SDS011;75005;50.966;11.344;2024-01-10T03:38:20;23.52;;;13.50;;
84774;SDS011;75005;50.966;11.344;2024-01-10T03:40:45;30.08;;;14.48;;
84774;SDS011;75005;50.966;11.344;2024-01-10T03:43:11;31.65;;;13.18;;
84774;SDS011;75005;50.966;11.344;2024-01-10T03:45:37;30.17;;;13.02;;
84774;SDS011;75005;50.966;11.344;2024-01-10T03:48:02;27.67;;;8.77;;
84774;SDS011;75005;50.966;11.344;2024-01-10T03:50:28;37.10;;;13.32;;
84774;SDS011;75005;50.966;11.344;2024-01-10T03:52:54;26.38;;;14.40;;
84774;SDS011;75005;50.966;11.344;2024-01-10T03:55:19;26.08;;;13.18;;
84774;SDS011;75005;50.966;11.344;2024-01-10T03:57:44;25.20;;;12.38;;
84774;SDS011;75005;50.966;11.344;2024-01-10T04:00:10;31.05;;;14.27;;
84774;SDS011;75005;50.966;11.344;2024-01-10T04:02:36;32.75;;;14.00;;
84774;SDS011;75005;50.966;11.344;2024-01-10T04:05:05;31.98;;;12.98;;
84774;SDS011;75005;50.966;11.344;2024-01-10T04:07:36;22.88;;;13.27;;
84774;SDS011;75005;50.966;11.344;2024-01-10T04:10:02;26.08;;;14.05;;
84774;SDS011;75005;50.966;11.344;2024-01-10T04:12:28;23.48;;;12.25;;
84774;SDS011;75005;50.966;11.344;2024-01-10T04:14:53;30.25;;;13.73;;
84774;SDS011;75005;50.966;11.344;2024-01-10T04:17:19;24.90;;;13.65;;
84774;SDS011;75005;50.966;11.344;2024-01-10T04:19:44;21.17;;;11.68;;
84774;SDS011;75005;50.966;11.344;2024-01-10T04:22:10;28.67;;;12.40;;
84774;SDS011;75005;50.966;11.344;2024-01-10T04:24:35;32.30;;;14.90;;
84774;SDS011;75005;50.966;11.344;2024-01-10T04:27:00;32.03;;;12.70;;
84774;SDS011;75005;50.966;11.344;2024-01-10T04:29:26;19.98;;;12.63;;
84774;SDS011;75005;50.966;11.344;2024-01-10T04:31:55;27.30;;;13.20;;
84774;SDS011;75005;50.966;11.344;2024-01-10T04:34:20;25.25;;;13.10;;
84774;SDS011;75005;50.966;11.344;2024-01-10T04:36:47;26.98;;;13.57;;
84774;SDS011;75005;50.966;11.344;2024-01-10T04:39:13;42.13;;;15.18;;
84774;SDS011;75005;50.966;11.344;2024-01-10T04:41:38;37.92;;;13.60;;
84774;SDS011;75005;50.966;11.344;2024-01-10T04:44:04;29.10;;;12.77;;
84774;SDS011;75005;50.966;11.344;2024-01-10T04:46:30;25.25;;;12.07;;
84774;SDS011;75005;50.966;11.344;2024-01-10T04:48:55;34.22;;;14.90;;
84774;SDS011;75005;50.966;11.344;2024-01-10T04:51:20;23.90;;;12.48;;
84774;SDS011;75005;50.966;11.344;2024-01-10T04:53:46;23.13;;;12.38;;
84774;SDS011;75005;50.966;11.344;2024-01-10T04:56:11;30.17;;;12.80;;
84774;SDS011;75005;50.966;11.344;2024-01-10T04:58:37;31.40;;;14.30;;
84774;SDS011;75005;50.966;11.344;2024-01-10T05:01:02;35.42;;;17.05;;
84774;SDS011;75005;50.966;11.344;2024-01-10T05:03:28;33.40;;;14.02;;
84774;SDS011;75005;50.966;11.344;2024-01-10T05:05:53;28.80;;;14.15;;
84774;SDS011;75005;50.966;11.344;2024-01-10T05:08:19;30.00;;;14.55;;
84774;SDS011;75005;50.966;11.344;2024-01-10T05:10:45;31.60;;;14.15;;
84774;SDS011;75005;50.966;11.344;2024-01-10T05:13:12;31.20;;;14.55;;
84774;SDS011;75005;50.966;11.344;2024-01-10T05:15:37;28.20;;;13.80;;
84774;SDS011;75005;50.966;11.344;2024-01-10T05:18:03;25.40;;;14.07;;
84774;SDS011;75005;50.966;11.344;2024-01-10T05:20:28;27.20;;;12.93;;
84774;SDS011;75005;50.966;11.344;2024-01-10T05:22:53;27.33;;;12.17;;
84774;SDS011;75005;50.966;11.344;2024-01-10T05:25:23;30.70;;;13.75;;
84774;SDS011;75005;50.966;11.344;2024-01-10T05:27:49;26.30;;;14.68;;
84774;SDS011;75005;50.966;11.344;2024-01-10T05:30:14;25.45;;;12.27;;
84774;SDS011;75005;50.966;11.344;2024-01-10T05:32:40;28.02;;;13.43;;
84774;SDS011;75005;50.966;11.344;2024-01-10T05:35:05;22.60;;;11.70;;
84774;SDS011;75005;50.966;11.344;2024-01-10T05:37:31;24.38;;;13.30;;
84774;SDS011;75005;50.966;11.344;2024-01-10T05:39:56;28.00;;;13.00;;
84774;SDS011;75005;50.966;11.344;2024-01-10T05:42:25;31.70;;;15.68;;
84774;SDS011;75005;50.966;11.344;2024-01-10T05:44:51;26.30;;;13.30;;
84774;SDS011;75005;50.966;11.344;2024-01-10T05:47:17;25.40;;;13.05;;
84774;SDS011;75005;50.966;11.344;2024-01-10T05:49:42;34.70;;;16.52;;
84774;SDS011;75005;50.966;11.344;2024-01-10T05:52:08;37.58;;;13.95;;
84774;SDS011;75005;50.966;11.344;2024-01-10T05:54:34;32.05;;;12.88;;
84774;SDS011;75005;50.966;11.344;2024-01-10T05:56:59;26.13;;;12.88;;
84774;SDS011;75005;50.966;11.344;2024-01-10T05:59:27;29.10;;;14.32;;
84774;SDS011;75005;50.966;11.344;2024-01-10T06:01:53;24.17;;;12.68;;
84774;SDS011;75005;50.966;11.344;2024-01-10T06:04:18;29.63;;;13.35;;
84774;SDS011;75005;50.966;11.344;2024-01-10T06:06:44;36.53;;;16.55;;
84774;SDS011;75005;50.966;11.344;2024-01-10T06:09:10;31.77;;;14.95;;
84774;SDS011;75005;50.966;11.344;2024-01-10T06:11:45;36.90;;;17.83;;
84774;SDS011;75005;50.966;11.344;2024-01-10T06:14:10;26.92;;;13.00;;
84774;SDS011;75005;50.966;11.344;2024-01-10T06:16:35;23.57;;;11.20;;
84774;SDS011;75005;50.966;11.344;2024-01-10T06:19:01;28.27;;;13.25;;
84774;SDS011;75005;50.966;11.344;2024-01-10T06:21:26;28.67;;;12.20;;
84774;SDS011;75005;50.966;11.344;2024-01-10T06:23:52;20.67;;;12.23;;
84774;SDS011;75005;50.966;11.344;2024-01-10T06:26:17;41.28;;;15.82;;
84774;SDS011;75005;50.966;11.344;2024-01-10T06:28:43;31.17;;;13.13;;
84774;SDS011;75005;50.966;11.344;2024-01-10T06:31:08;25.27;;;14.02;;
84774;SDS011;75005;50.966;11.344;2024-01-10T06:33:33;26.80;;;14.02;;
84774;SDS011;75005;50.966;11.344;2024-01-10T06:35:59;24.70;;;14.68;;
84774;SDS011;75005;50.966;11.344;2024-01-10T06:38:24;28.90;;;13.23;;
84774;SDS011;75005;50.966;11.344;2024-01-10T06:40:50;29.65;;;12.40;;
84774;SDS011;75005;50.966;11.344;2024-01-10T06:43:15;33.75;;;16.77;;
84774;SDS011;75005;50.966;11.344;2024-01-10T06:45:41;34.70;;;14.68;;
84774;SDS011;75005;50.966;11.344;2024-01-10T06:48:07;28.15;;;12.75;;
84774;SDS011;75005;50.966;11.344;2024-01-10T06:50:33;40.70;;;15.05;;
84774;SDS011;75005;50.966;11.344;2024-01-10T06:52:58;31.40;;;14.65;;
84774;SDS011;75005;50.966;11.344;2024-01-10T06:55:24;41.38;;;18.88;;
84774;SDS011;75005;50.966;11.344;2024-01-10T06:57:49;42.75;;;18.70;;
84774;SDS011;75005;50.966;11.344;2024-01-10T07:00:18;139.00;;;42.42;;
84774;SDS011;75005;50.966;11.344;2024-01-10T07:02:47;46.88;;;19.10;;
84774;SDS011;75005;50.966;11.344;2024-01-10T07:05:14;30.95;;;17.15;;
84774;SDS011;75005;50.966;11.344;2024-01-10T07:07:39;59.00;;;21.98;;
84774;SDS011;75005;50.966;11.344;2024-01-10T07:10:05;91.13;;;31.27;;
84774;SDS011;75005;50.966;11.344;2024-01-10T07:12:31;31.00;;;13.90;;
84774;SDS011;75005;50.966;11.344;2024-01-10T07:14:58;36.80;;;17.45;;
84774;SDS011;75005;50.966;11.344;2024-01-10T07:17:23;62.20;;;22.45;;
84774;SDS011;75005;50.966;11.344;2024-01-10T07:19:49;56.22;;;25.48;;
84774;SDS011;75005;50.966;11.344;2024-01-10T07:22:14;59.25;;;28.02;;
84774;SDS011;75005;50.966;11.344;2024-01-10T07:24:40;57.40;;;25.83;;
84774;SDS011;75005;50.966;11.344;2024-01-10T07:27:05;38.10;;;20.60;;
84774;SDS011;75005;50.966;11.344;2024-01-10T07:29:32;33.85;;;17.80;;
84774;SDS011;75005;50.966;11.344;2024-01-10T07:31:57;62.40;;;26.55;;
84774;SDS011;75005;50.966;11.344;2024-01-10T07:34:23;46.70;;;19.77;;
84774;SDS011;75005;50.966;11.344;2024-01-10T07:36:48;35.00;;;16.27;;
84774;SDS011;75005;50.966;11.344;2024-01-10T07:39:14;29.88;;;14.75;;
84774;SDS011;75005;50.966;11.344;2024-01-10T07:41:45;34.42;;;15.55;;
84774;SDS011;75005;50.966;11.344;2024-01-10T07:44:11;42.67;;;18.20;;
84774;SDS011;75005;50.966;11.344;2024-01-10T07:46:37;40.70;;;18.00;;
84774;SDS011;75005;50.966;11.344;2024-01-10T07:49:03;26.52;;;14.18;;
84774;SDS011;75005;50.966;11.344;2024-01-10T07:51:30;32.97;;;15.95;;
84774;SDS011;75005;50.966;11.344;2024-01-10T07:53:55;42.22;;;18.30;;
84774;SDS011;75005;50.966;11.344;2024-01-10T07:56:21;34.70;;;18.48;;
84774;SDS011;75005;50.966;11.344;2024-01-10T07:58:46;34.35;;;16.13;;
84774;SDS011;75005;50.966;11.344;2024-01-10T08:01:12;43.10;;;16.27;;
84774;SDS011;75005;50.966;11.344;2024-01-10T08:03:37;32.65;;;17.02;;
84774;SDS011;75005;50.966;11.344;2024-01-10T08:06:03;36.13;;;16.67;;
84774;SDS011;75005;50.966;11.344;2024-01-10T08:08:28;36.03;;;16.90;;
84774;SDS011;75005;50.966;11.344;2024-01-10T08:10:55;34.25;;;18.35;;
84774;SDS011;75005;50.966;11.344;2024-01-10T08:13:21;43.88;;;20.33;;
84774;SDS011;75005;50.966;11.344;2024-01-10T08:15:46;36.60;;;18.35;;
84774;SDS011;75005;50.966;11.344;2024-01-10T08:18:12;51.10;;;19.90;;
84774;SDS011;75005;50.966;11.344;2024-01-10T08:20:39;46.17;;;17.95;;
84774;SDS011;75005;50.966;11.344;2024-01-10T08:23:04;53.90;;;22.33;;
84774;SDS011;75005;50.966;11.344;2024-01-10T08:25:30;35.50;;;15.88;;
84774;SDS011;75005;50.966;11.344;2024-01-10T08:27:55;44.35;;;22.13;;
84774;SDS011;75005;50.966;11.344;2024-01-10T08:30:22;55.47;;;22.95;;
84774;SDS011;75005;50.966;11.344;2024-01-10T08:32:48;41.85;;;16.08;;
84774;SDS011;75005;50.966;11.344;2024-01-10T08:35:14;45.58;;;21.08;;
84774;SDS011;75005;50.966;11.344;2024-01-10T08:37:39;52.50;;;22.88;;
84774;SDS011;75005;50.966;11.344;2024-01-10T08:40:08;35.97;;;17.35;;
84774;SDS011;75005;50.966;11.344;2024-01-10T08:42:39;51.15;;;20.05;;
84774;SDS011;75005;50.966;11.344;2024-01-10T08:45:05;53.92;;;24.13;;
84774;SDS011;75005;50.966;11.344;2024-01-10T08:47:31;56.65;;;24.00;;
84774;SDS011;75005;50.966;11.344;2024-01-10T08:49:58;41.70;;;19.27;;
84774;SDS011;75005;50.966;11.344;2024-01-10T08:52:23;51.05;;;22.25;;
84774;SDS011;75005;50.966;11.344;2024-01-10T08:54:49;43.97;;;18.92;;
84774;SDS011;75005;50.966;11.344;2024-01-10T08:57:14;53.20;;;19.15;;
84774;SDS011;75005;50.966;11.344;2024-01-10T08:59:43;38.72;;;17.90;;
84774;SDS011;75005;50.966;11.344;2024-01-10T09:02:08;53.97;;;20.38;;
84774;SDS011;75005;50.966;11.344;2024-01-10T09:04:34;61.97;;;23.27;;
84774;SDS011;75005;50.966;11.344;2024-01-10T09:06:59;62.35;;;27.05;;
84774;SDS011;75005;50.966;11.344;2024-01-10T09:09:25;53.95;;;20.38;;
84774;SDS011;75005;50.966;11.344;2024-01-10T09:11:50;66.05;;;28.13;;
84774;SDS011;75005;50.966;11.344;2024-01-10T09:14:16;52.72;;;22.38;;
84774;SDS011;75005;50.966;11.344;2024-01-10T09:16:41;51.28;;;23.42;;
84774;SDS011;75005;50.966;11.344;2024-01-10T09:19:07;54.30;;;22.80;;
84774;SDS011;75005;50.966;11.344;2024-01-10T09:21:33;54.72;;;21.88;;
84774;SDS011;75005;50.966;11.344;2024-01-10T09:23:58;61.50;;;23.80;;
84774;SDS011;75005;50.966;11.344;2024-01-10T09:26:23;60.42;;;21.02;;
84774;SDS011;75005;50.966;11.344;2024-01-10T09:28:49;55.75;;;22.77;;
84774;SDS011;75005;50.966;11.344;2024-01-10T09:31:14;52.97;;;20.92;;
84774;SDS011;75005;50.966;11.344;2024-01-10T09:33:40;53.72;;;23.73;;
84774;SDS011;75005;50.966;11.344;2024-01-10T09:36:05;47.45;;;21.13;;
84774;SDS011;75005;50.966;11.344;2024-01-10T09:38:35;52.00;;;21.75;;
84774;SDS011;75005;50.966;11.344;2024-01-10T09:41:02;86.25;;;36.45;;
84774;SDS011;75005;50.966;11.344;2024-01-10T09:43:31;54.03;;;21.33;;
84774;SDS011;75005;50.966;11.344;2024-01-10T09:46:00;54.17;;;24.02;;
84774;SDS011;75005;50.966;11.344;2024-01-10T09:48:30;65.40;;;23.08;;
84774;SDS011;75005;50.966;11.344;2024-01-10T09:50:56;50.42;;;21.17;;
84774;SDS011;75005;50.966;11.344;2024-01-10T09:53:22;61.80;;;24.20;;
84774;SDS011;75005;50.966;11.344;2024-01-10T09:55:49;46.75;;;22.33;;
84774;SDS011;75005;50.966;11.344;2024-01-10T09:58:15;62.25;;;22.08;;
84774;SDS011;75005;50.966;11.344;2024-01-10T10:00:41;57.75;;;23.25;;
84774;SDS011;75005;50.966;11.344;2024-01-10T10:03:07;49.50;;;21.23;;
84774;SDS011;75005;50.966;11.344;2024-01-10T10:05:36;49.70;;;21.80;;
84774;SDS011;75005;50.966;11.344;2024-01-10T10:08:02;62.90;;;26.77;;
84774;SDS011;75005;50.966;11.344;2024-01-10T10:10:28;70.07;;;26.95;;
84774;SDS011;75005;50.966;11.344;2024-01-10T10:12:53;56.83;;;23.08;;
84774;SDS011;75005;50.966;11.344;2024-01-10T10:15:20;54.35;;;19.63;;
84774;SDS011;75005;50.966;11.344;2024-01-10T10:17:47;56.38;;;20.80;;
84774;SDS011;75005;50.966;11.344;2024-01-10T10:20:23;55.28;;;23.25;;
84774;SDS011;75005;50.966;11.344;2024-01-10T10:22:57;49.92;;;21.20;;
84774;SDS011;75005;50.966;11.344;2024-01-10T10:25:28;53.85;;;22.00;;
84774;SDS011;75005;50.966;11.344;2024-01-10T10:28:03;62.60;;;25.13;;
84774;SDS011;75005;50.966;11.344;2024-01-10T10:30:32;44.97;;;22.40;;
84774;SDS011;75005;50.966;11.344;2024-01-10T10:33:02;82.30;;;30.05;;
84774;SDS011;75005;50.966;11.344;2024-01-10T10:35:28;70.18;;;27.13;;
84774;SDS011;75005;50.966;11.344;2024-01-10T10:37:53;60.50;;;23.13;;
84774;SDS011;75005;50.966;11.344;2024-01-10T10:40:20;46.58;;;19.88;;
84774;SDS011;75005;50.966;11.344;2024-01-10T10:42:47;60.45;;;22.73;;
84774;SDS011;75005;50.966;11.344;2024-01-10T10:45:15;50.97;;;21.10;;
84774;SDS011;75005;50.966;11.344;2024-01-10T10:47:54;51.70;;;21.95;;
84774;SDS011;75005;50.966;11.344;2024-01-10T10:50:22;51.30;;;22.35;;
84774;SDS011;75005;50.966;11.344;2024-01-10T10:52:50;48.20;;;20.30;;
84774;SDS011;75005;50.966;11.344;2024-01-10T10:55:16;57.08;;;23.52;;
84774;SDS011;75005;50.966;11.344;2024-01-10T10:57:46;52.13;;;23.10;;
84774;SDS011;75005;50.966;11.344;2024-01-10T11:00:18;53.10;;;21.58;;
84774;SDS011;75005;50.966;11.344;2024-01-10T11:02:45;49.70;;;22.95;;
84774;SDS011;75005;50.966;11.344;2024-01-10T11:05:11;62.15;;;26.70;;
84774;SDS011;75005;50.966;11.344;2024-01-10T11:07:37;51.47;;;23.75;;
84774;SDS011;75005;50.966;11.344;2024-01-10T11:10:24;59.17;;;24.95;;
84774;SDS011;75005;50.966;11.344;2024-01-10T11:21:19;56.47;;;22.95;;
84774;SDS011;75005;50.966;11.344;2024-01-10T11:23:53;51.88;;;23.80;;
84774;SDS011;75005;50.966;11.344;2024-01-10T11:26:21;52.33;;;22.92;;
84774;SDS011;75005;50.966;11.344;2024-01-10T11:28:46;53.88;;;21.85;;
84774;SDS011;75005;50.966;11.344;2024-01-10T11:31:13;56.65;;;23.73;;
84774;SDS011;75005;50.966;11.344;2024-01-10T11:33:40;54.72;;;24.05;;
84774;SDS011;75005;50.966;11.344;2024-01-10T11:46:52;56.25;;;22.20;;
84774;SDS011;75005;50.966;11.344;2024-01-10T11:49:20;56.28;;;22.02;;
84774;SDS011;75005;50.966;11.344;2024-01-10T11:51:47;53.08;;;20.48;;
84774;SDS011;75005;50.966;11.344;2024-01-10T11:54:36;52.92;;;21.55;;
84774;SDS011;75005;50.966;11.344;2024-01-10T11:57:08;55.10;;;24.20;;
84774;SDS011;75005;50.966;11.344;2024-01-10T11:59:46;54.92;;;22.85;;
84774;SDS011;75005;50.966;11.344;2024-01-10T12:02:13;63.80;;;23.85;;
84774;SDS011;75005;50.966;11.344;2024-01-10T12:04:39;58.38;;;22.77;;
84774;SDS011;75005;50.966;11.344;2024-01-10T12:07:06;63.50;;;25.65;;
84774;SDS011;75005;50.966;11.344;2024-01-10T12:09:33;59.78;;;24.40;;
84774;SDS011;75005;50.966;11.344;2024-01-10T12:11:59;46.40;;;21.05;;
84774;SDS011;75005;50.966;11.344;2024-01-10T12:14:25;72.63;;;25.30;;
84774;SDS011;75005;50.966;11.344;2024-01-10T12:16:51;62.85;;;25.42;;
84774;SDS011;75005;50.966;11.344;2024-01-10T12:19:19;56.90;;;22.00;;
84774;SDS011;75005;50.966;11.344;2024-01-10T12:21:45;54.35;;;26.05;;
84774;SDS011;75005;50.966;11.344;2024-01-10T12:24:10;75.45;;;25.13;;
84774;SDS011;75005;50.966;11.344;2024-01-10T12:26:36;58.05;;;23.10;;
84774;SDS011;75005;50.966;11.344;2024-01-10T12:29:11;62.20;;;25.38;;
84774;SDS011;75005;50.966;11.344;2024-01-10T12:31:37;64.55;;;27.90;;
84774;SDS011;75005;50.966;11.344;2024-01-10T12:34:04;60.05;;;24.48;;
84774;SDS011;75005;50.966;11.344;2024-01-10T12:36:32;62.28;;;22.05;;
84774;SDS011;75005;50.966;11.344;2024-01-10T12:38:57;67.63;;;26.65;;
84774;SDS011;75005;50.966;11.344;2024-01-10T12:41:23;58.72;;;23.60;;
84774;SDS011;75005;50.966;11.344;2024-01-10T12:43:54;59.45;;;23.23;;
84774;SDS011;75005;50.966;11.344;2024-01-10T12:46:20;68.80;;;27.80;;
84774;SDS011;75005;50.966;11.344;2024-01-10T12:48:49;63.22;;;25.85;;
84774;SDS011;75005;50.966;11.344;2024-01-10T12:51:23;62.05;;;27.05;;
84774;SDS011;75005;50.966;11.344;2024-01-10T12:53:49;70.57;;;26.00;;
84774;SDS011;75005;50.966;11.344;2024-01-10T12:56:14;62.47;;;27.15;;
84774;SDS011;75005;50.966;11.344;2024-01-10T12:58:41;61.15;;;27.23;;
84774;SDS011;75005;50.966;11.344;2024-01-10T13:01:10;61.60;;;25.65;;
84774;SDS011;75005;50.966;11.344;2024-01-10T13:03:37;51.92;;;24.00;;
84774;SDS011;75005;50.966;11.344;2024-01-10T13:06:05;66.95;;;26.45;;
84774;SDS011;75005;50.966;11.344;2024-01-10T13:08:30;72.20;;;27.27;;
84774;SDS011;75005;50.966;11.344;2024-01-10T13:10:59;77.97;;;29.35;;
84774;SDS011;75005;50.966;11.344;2024-01-10T13:13:33;57.78;;;24.38;;
84774;SDS011;75005;50.966;11.344;2024-01-10T13:15:58;63.65;;;26.45;;
84774;SDS011;75005;50.966;11.344;2024-01-10T13:18:25;72.13;;;27.77;;
84774;SDS011;75005;50.966;11.344;2024-01-10T13:20:51;74.28;;;27.48;;
84774;SDS011;75005;50.966;11.344;2024-01-10T13:23:17;73.22;;;26.30;;
84774;SDS011;75005;50.966;11.344;2024-01-10T13:25:43;59.22;;;26.65;;
84774;SDS011;75005;50.966;11.344;2024-01-10T13:28:09;56.20;;;27.95;;
84774;SDS011;75005;50.966;11.344;2024-01-10T13:30:37;60.45;;;27.45;;
84774;SDS011;75005;50.966;11.344;2024-01-10T13:33:06;69.97;;;29.42;;
84774;SDS011;75005;50.966;11.344;2024-01-10T13:35:32;71.65;;;27.38;;
84774;SDS011;75005;50.966;11.344;2024-01-10T13:37:58;74.45;;;27.27;;
84774;SDS011;75005;50.966;11.344;2024-01-10T13:40:24;71.75;;;27.25;;
84774;SDS011;75005;50.966;11.344;2024-01-10T13:42:51;69.20;;;26.52;;
84774;SDS011;75005;50.966;11.344;2024-01-10T13:45:18;70.28;;;26.17;;
84774;SDS011;75005;50.966;11.344;2024-01-10T13:47:44;78.60;;;26.83;;
84774;SDS011;75005;50.966;11.344;2024-01-10T13:50:09;71.35;;;27.65;;
84774;SDS011;75005;50.966;11.344;2024-01-10T13:52:35;60.50;;;26.55;;
84774;SDS011;75005;50.966;11.344;2024-01-10T13:55:01;59.70;;;24.75;;
84774;SDS011;75005;50.966;11.344;2024-01-10T13:57:31;76.68;;;29.15;;
84774;SDS011;75005;50.966;11.344;2024-01-10T13:59:59;74.57;;;28.27;;
84774;SDS011;75005;50.966;11.344;2024-01-10T14:02:25;64.88;;;28.35;;
84774;SDS011;75005;50.966;11.344;2024-01-10T14:04:51;69.97;;;26.65;;
84774;SDS011;75005;50.966;11.344;2024-01-10T14:07:19;66.70;;;26.42;;
84774;SDS011;75005;50.966;11.344;2024-01-10T14:09:45;64.50;;;25.88;;
84774;SDS011;75005;50.966;11.344;2024-01-10T14:12:10;59.88;;;25.80;;
84774;SDS011;75005;50.966;11.344;2024-01-10T14:14:36;68.57;;;26.73;;
84774;SDS011;75005;50.966;11.344;2024-01-10T14:17:02;74.43;;;30.60;;
84774;SDS011;75005;50.966;11.344;2024-01-10T14:19:29;72.35;;;28.73;;
84774;SDS011;75005;50.966;11.344;2024-01-10T14:21:54;65.32;;;26.95;;
84774;SDS011;75005;50.966;11.344;2024-01-10T14:24:20;69.10;;;27.92;;